sensor_id;sensor_type;location;lat;lon;timestamp;P1;durP1;ratioP1;P2;durP2;ratioP2
7883;SDS011;3987;51.458;7.238;2022-10-16T00:00:34;3.43;;;2.90;;
7883;SDS011;3987;51.458;7.238;2022-10-16T00:03:01;3.87;;;2.83;;
7883;SDS011;3987;51.458;7.238;2022-10-16T00:05:26;2.80;;;2.60;;
7883;SDS011;3987;51.458;7.238;2022-10-16T00:07:52;5.47;;;3.07;;
7883;SDS011;3987;51.458;7.238;2022-10-16T00:10:17;2.73;;;2.63;;
7883;SDS011;3987;51.458;7.238;2022-10-16T00:12:43;2.63;;;2.53;;
7883;SDS011;3987;51.458;7.238;2022-10-16T00:15:08;3.00;;;2.80;;
7883;SDS011;3987;51.458;7.238;2022-10-16T00:17:34;2.63;;;2.53;;
7883;SDS011;3987;51.458;7.238;2022-10-16T00:19:59;3.53;;;3.10;;
7883;SDS011;3987;51.458;7.238;2022-10-16T00:22:25;2.63;;;2.50;;
7883;SDS011;3987;51.458;7.238;2022-10-16T00:24:50;2.50;;;2.40;;
7883;SDS011;3987;51.458;7.238;2022-10-16T00:27:16;2.90;;;2.80;;
7883;SDS011;3987;51.458;7.238;2022-10-16T00:29:42;3.13;;;2.93;;
7883;SDS011;3987;51.458;7.238;2022-10-16T00:32:07;3.20;;;2.90;;
7883;SDS011;3987;51.458;7.238;2022-10-16T00:34:33;2.60;;;2.40;;
7883;SDS011;3987;51.458;7.238;2022-10-16T00:36:58;2.50;;;2.50;;
7883;SDS011;3987;51.458;7.238;2022-10-16T00:39:24;2.43;;;2.33;;
7883;SDS011;3987;51.458;7.238;2022-10-16T00:41:50;2.60;;;2.20;;
7883;SDS011;3987;51.458;7.238;2022-10-16T00:47:29;2.60;;;2.40;;
7883;SDS011;3987;51.458;7.238;2022-10-16T00:52:43;2.10;;;1.90;;
7883;SDS011;3987;51.458;7.238;2022-10-16T00:55:11;1.90;;;1.90;;
7883;SDS011;3987;51.458;7.238;2022-10-16T00:57:37;3.13;;;2.20;;
7883;SDS011;3987;51.458;7.238;2022-10-16T01:00:07;4.00;;;2.30;;
7883;SDS011;3987;51.458;7.238;2022-10-16T01:02:34;1.47;;;1.47;;
7883;SDS011;3987;51.458;7.238;2022-10-16T01:05:00;1.87;;;1.80;;
7883;SDS011;3987;51.458;7.238;2022-10-16T01:10:35;2.37;;;1.83;;
7883;SDS011;3987;51.458;7.238;2022-10-16T01:13:10;1.97;;;1.87;;
7883;SDS011;3987;51.458;7.238;2022-10-16T01:15:42;2.20;;;2.00;;
7883;SDS011;3987;51.458;7.238;2022-10-16T01:18:13;2.03;;;1.80;;
7883;SDS011;3987;51.458;7.238;2022-10-16T01:20:54;2.37;;;1.90;;
7883;SDS011;3987;51.458;7.238;2022-10-16T01:28:46;1.80;;;1.70;;
7883;SDS011;3987;51.458;7.238;2022-10-16T01:31:18;4.17;;;1.70;;
7883;SDS011;3987;51.458;7.238;2022-10-16T01:33:46;2.10;;;2.00;;
7883;SDS011;3987;51.458;7.238;2022-10-16T01:36:20;1.53;;;1.53;;
7883;SDS011;3987;51.458;7.238;2022-10-16T01:38:49;1.73;;;1.63;;
7883;SDS011;3987;51.458;7.238;2022-10-16T01:41:33;2.23;;;1.87;;
7883;SDS011;3987;51.458;7.238;2022-10-16T01:44:12;1.70;;;1.67;;
7883;SDS011;3987;51.458;7.238;2022-10-16T01:46:41;5.10;;;1.90;;
7883;SDS011;3987;51.458;7.238;2022-10-16T01:49:08;1.87;;;1.87;;
7883;SDS011;3987;51.458;7.238;2022-10-16T01:51:35;1.87;;;1.77;;
7883;SDS011;3987;51.458;7.238;2022-10-16T01:54:01;1.73;;;1.63;;
7883;SDS011;3987;51.458;7.238;2022-10-16T01:56:27;2.10;;;1.70;;
7883;SDS011;3987;51.458;7.238;2022-10-16T01:58:54;3.00;;;2.10;;
7883;SDS011;3987;51.458;7.238;2022-10-16T02:01:22;2.43;;;2.20;;
7883;SDS011;3987;51.458;7.238;2022-10-16T02:03:49;1.63;;;1.53;;
7883;SDS011;3987;51.458;7.238;2022-10-16T02:06:17;1.40;;;1.40;;
7883;SDS011;3987;51.458;7.238;2022-10-16T02:08:42;1.97;;;1.90;;
7883;SDS011;3987;51.458;7.238;2022-10-16T02:11:09;2.20;;;2.10;;
7883;SDS011;3987;51.458;7.238;2022-10-16T02:16:06;1.80;;;1.70;;
7883;SDS011;3987;51.458;7.238;2022-10-16T02:18:32;1.77;;;1.70;;
7883;SDS011;3987;51.458;7.238;2022-10-16T02:21:02;1.57;;;1.57;;
7883;SDS011;3987;51.458;7.238;2022-10-16T02:23:45;2.30;;;1.80;;
7883;SDS011;3987;51.458;7.238;2022-10-16T02:26:17;2.03;;;1.83;;
7883;SDS011;3987;51.458;7.238;2022-10-16T02:28:52;1.40;;;1.37;;
7883;SDS011;3987;51.458;7.238;2022-10-16T02:31:21;4.93;;;1.50;;
7883;SDS011;3987;51.458;7.238;2022-10-16T02:33:51;1.37;;;1.37;;
7883;SDS011;3987;51.458;7.238;2022-10-16T02:36:18;3.53;;;1.50;;
7883;SDS011;3987;51.458;7.238;2022-10-16T02:38:43;1.43;;;1.43;;
7883;SDS011;3987;51.458;7.238;2022-10-16T02:41:09;4.00;;;1.30;;
7883;SDS011;3987;51.458;7.238;2022-10-16T02:43:35;1.77;;;1.40;;
7883;SDS011;3987;51.458;7.238;2022-10-16T02:46:00;1.43;;;1.30;;
7883;SDS011;3987;51.458;7.238;2022-10-16T02:48:26;1.43;;;1.33;;
7883;SDS011;3987;51.458;7.238;2022-10-16T02:50:51;1.53;;;1.53;;
7883;SDS011;3987;51.458;7.238;2022-10-16T02:53:16;1.67;;;1.53;;
7883;SDS011;3987;51.458;7.238;2022-10-16T02:55:42;1.23;;;1.23;;
7883;SDS011;3987;51.458;7.238;2022-10-16T02:58:07;1.80;;;1.40;;
7883;SDS011;3987;51.458;7.238;2022-10-16T03:00:33;1.30;;;1.23;;
7883;SDS011;3987;51.458;7.238;2022-10-16T03:02:58;3.50;;;1.10;;
7883;SDS011;3987;51.458;7.238;2022-10-16T03:05:23;1.40;;;1.40;;
7883;SDS011;3987;51.458;7.238;2022-10-16T03:07:49;1.20;;;1.20;;
7883;SDS011;3987;51.458;7.238;2022-10-16T03:10:14;2.00;;;1.33;;
7883;SDS011;3987;51.458;7.238;2022-10-16T03:12:39;0.90;;;0.90;;
7883;SDS011;3987;51.458;7.238;2022-10-16T03:15:05;1.00;;;1.00;;
7883;SDS011;3987;51.458;7.238;2022-10-16T03:17:31;1.00;;;1.00;;
7883;SDS011;3987;51.458;7.238;2022-10-16T03:19:57;1.00;;;1.00;;
7883;SDS011;3987;51.458;7.238;2022-10-16T03:22:22;0.90;;;0.90;;
7883;SDS011;3987;51.458;7.238;2022-10-16T03:24:48;0.67;;;0.67;;
7883;SDS011;3987;51.458;7.238;2022-10-16T03:27:13;1.00;;;1.00;;
7883;SDS011;3987;51.458;7.238;2022-10-16T03:29:39;1.07;;;0.90;;
7883;SDS011;3987;51.458;7.238;2022-10-16T03:32:04;0.93;;;0.90;;
7883;SDS011;3987;51.458;7.238;2022-10-16T03:34:29;0.70;;;0.70;;
7883;SDS011;3987;51.458;7.238;2022-10-16T03:36:55;1.97;;;0.80;;
7883;SDS011;3987;51.458;7.238;2022-10-16T03:39:20;0.80;;;0.80;;
7883;SDS011;3987;51.458;7.238;2022-10-16T03:41:46;1.10;;;1.10;;
7883;SDS011;3987;51.458;7.238;2022-10-16T03:44:12;1.77;;;0.97;;
7883;SDS011;3987;51.458;7.238;2022-10-16T03:46:38;1.07;;;1.07;;
7883;SDS011;3987;51.458;7.238;2022-10-16T03:49:03;1.00;;;1.00;;
7883;SDS011;3987;51.458;7.238;2022-10-16T03:51:28;0.60;;;0.60;;
7883;SDS011;3987;51.458;7.238;2022-10-16T03:53:54;1.40;;;1.10;;
7883;SDS011;3987;51.458;7.238;2022-10-16T03:56:19;0.70;;;0.70;;
7883;SDS011;3987;51.458;7.238;2022-10-16T03:58:45;0.90;;;0.90;;
7883;SDS011;3987;51.458;7.238;2022-10-16T04:01:10;1.37;;;1.07;;
7883;SDS011;3987;51.458;7.238;2022-10-16T04:03:35;0.90;;;0.90;;
7883;SDS011;3987;51.458;7.238;2022-10-16T04:06:01;0.90;;;0.90;;
7883;SDS011;3987;51.458;7.238;2022-10-16T04:08:26;3.13;;;1.10;;
7883;SDS011;3987;51.458;7.238;2022-10-16T04:10:52;1.17;;;0.70;;
7883;SDS011;3987;51.458;7.238;2022-10-16T04:13:17;0.80;;;0.80;;
7883;SDS011;3987;51.458;7.238;2022-10-16T04:15:44;1.40;;;0.87;;
7883;SDS011;3987;51.458;7.238;2022-10-16T04:18:09;1.70;;;1.10;;
7883;SDS011;3987;51.458;7.238;2022-10-16T04:20:35;1.27;;;0.57;;
7883;SDS011;3987;51.458;7.238;2022-10-16T04:23:00;1.80;;;0.73;;
7883;SDS011;3987;51.458;7.238;2022-10-16T04:25:25;0.80;;;0.80;;
7883;SDS011;3987;51.458;7.238;2022-10-16T04:27:52;0.90;;;0.90;;
7883;SDS011;3987;51.458;7.238;2022-10-16T04:30:18;1.20;;;0.90;;
7883;SDS011;3987;51.458;7.238;2022-10-16T04:32:47;1.00;;;1.00;;
7883;SDS011;3987;51.458;7.238;2022-10-16T04:35:13;0.90;;;0.90;;
7883;SDS011;3987;51.458;7.238;2022-10-16T04:37:39;1.47;;;1.13;;
7883;SDS011;3987;51.458;7.238;2022-10-16T04:40:04;1.13;;;0.80;;
7883;SDS011;3987;51.458;7.238;2022-10-16T04:42:30;1.03;;;1.03;;
7883;SDS011;3987;51.458;7.238;2022-10-16T04:44:55;0.70;;;0.70;;
7883;SDS011;3987;51.458;7.238;2022-10-16T04:47:20;0.73;;;0.73;;
7883;SDS011;3987;51.458;7.238;2022-10-16T04:49:46;0.83;;;0.83;;
7883;SDS011;3987;51.458;7.238;2022-10-16T04:52:11;0.80;;;0.80;;
7883;SDS011;3987;51.458;7.238;2022-10-16T04:54:37;0.70;;;0.70;;
7883;SDS011;3987;51.458;7.238;2022-10-16T04:57:02;1.30;;;0.60;;
7883;SDS011;3987;51.458;7.238;2022-10-16T04:59:27;1.27;;;0.90;;
7883;SDS011;3987;51.458;7.238;2022-10-16T05:01:53;1.00;;;1.00;;
7883;SDS011;3987;51.458;7.238;2022-10-16T05:04:18;0.80;;;0.80;;
7883;SDS011;3987;51.458;7.238;2022-10-16T05:06:44;0.93;;;0.93;;
7883;SDS011;3987;51.458;7.238;2022-10-16T05:09:09;0.97;;;0.90;;
7883;SDS011;3987;51.458;7.238;2022-10-16T05:11:35;1.07;;;0.87;;
7883;SDS011;3987;51.458;7.238;2022-10-16T05:14:00;1.10;;;1.10;;
7883;SDS011;3987;51.458;7.238;2022-10-16T05:16:26;1.43;;;0.70;;
7883;SDS011;3987;51.458;7.238;2022-10-16T05:18:52;0.70;;;0.70;;
7883;SDS011;3987;51.458;7.238;2022-10-16T05:21:17;1.03;;;0.90;;
7883;SDS011;3987;51.458;7.238;2022-10-16T05:23:43;1.00;;;0.80;;
7883;SDS011;3987;51.458;7.238;2022-10-16T05:26:08;1.00;;;1.00;;
7883;SDS011;3987;51.458;7.238;2022-10-16T05:28:33;3.30;;;0.90;;
7883;SDS011;3987;51.458;7.238;2022-10-16T05:30:59;0.93;;;0.93;;
7883;SDS011;3987;51.458;7.238;2022-10-16T05:33:25;0.73;;;0.70;;
7883;SDS011;3987;51.458;7.238;2022-10-16T05:35:50;1.00;;;1.00;;
7883;SDS011;3987;51.458;7.238;2022-10-16T05:38:17;0.90;;;0.90;;
7883;SDS011;3987;51.458;7.238;2022-10-16T05:40:42;0.80;;;0.80;;
7883;SDS011;3987;51.458;7.238;2022-10-16T05:43:08;0.80;;;0.80;;
7883;SDS011;3987;51.458;7.238;2022-10-16T05:45:33;1.07;;;1.07;;
7883;SDS011;3987;51.458;7.238;2022-10-16T05:47:59;2.93;;;1.00;;
7883;SDS011;3987;51.458;7.238;2022-10-16T05:50:25;1.00;;;1.00;;
7883;SDS011;3987;51.458;7.238;2022-10-16T05:52:50;1.20;;;1.10;;
7883;SDS011;3987;51.458;7.238;2022-10-16T05:55:15;1.10;;;1.10;;
7883;SDS011;3987;51.458;7.238;2022-10-16T05:57:41;1.17;;;1.17;;
7883;SDS011;3987;51.458;7.238;2022-10-16T06:00:06;1.00;;;1.00;;
7883;SDS011;3987;51.458;7.238;2022-10-16T06:02:37;2.00;;;1.13;;
7883;SDS011;3987;51.458;7.238;2022-10-16T06:05:03;1.20;;;1.10;;
7883;SDS011;3987;51.458;7.238;2022-10-16T06:07:28;2.13;;;1.00;;
7883;SDS011;3987;51.458;7.238;2022-10-16T06:09:54;1.63;;;1.43;;
7883;SDS011;3987;51.458;7.238;2022-10-16T06:12:19;0.90;;;0.90;;
7883;SDS011;3987;51.458;7.238;2022-10-16T06:14:45;1.13;;;1.03;;
7883;SDS011;3987;51.458;7.238;2022-10-16T06:17:12;0.90;;;0.90;;
7883;SDS011;3987;51.458;7.238;2022-10-16T06:19:38;0.83;;;0.80;;
7883;SDS011;3987;51.458;7.238;2022-10-16T06:22:04;1.20;;;0.97;;
7883;SDS011;3987;51.458;7.238;2022-10-16T06:24:29;1.13;;;1.13;;
7883;SDS011;3987;51.458;7.238;2022-10-16T06:26:55;0.90;;;0.90;;
7883;SDS011;3987;51.458;7.238;2022-10-16T06:29:20;1.23;;;1.07;;
7883;SDS011;3987;51.458;7.238;2022-10-16T06:31:46;2.23;;;1.07;;
7883;SDS011;3987;51.458;7.238;2022-10-16T06:34:11;1.10;;;1.10;;
7883;SDS011;3987;51.458;7.238;2022-10-16T06:36:37;1.40;;;1.30;;
7883;SDS011;3987;51.458;7.238;2022-10-16T06:39:04;1.47;;;1.47;;
7883;SDS011;3987;51.458;7.238;2022-10-16T06:41:30;1.10;;;1.10;;
7883;SDS011;3987;51.458;7.238;2022-10-16T06:44:01;1.60;;;1.50;;
7883;SDS011;3987;51.458;7.238;2022-10-16T06:46:30;2.27;;;1.60;;
7883;SDS011;3987;51.458;7.238;2022-10-16T06:48:55;1.00;;;1.00;;
7883;SDS011;3987;51.458;7.238;2022-10-16T06:51:21;1.30;;;1.03;;
7883;SDS011;3987;51.458;7.238;2022-10-16T06:53:49;1.27;;;1.03;;
7883;SDS011;3987;51.458;7.238;2022-10-16T06:56:16;2.00;;;1.17;;
7883;SDS011;3987;51.458;7.238;2022-10-16T06:58:49;1.03;;;1.03;;
7883;SDS011;3987;51.458;7.238;2022-10-16T07:01:16;1.20;;;1.20;;
7883;SDS011;3987;51.458;7.238;2022-10-16T07:03:43;2.23;;;1.40;;
7883;SDS011;3987;51.458;7.238;2022-10-16T07:06:09;2.03;;;1.20;;
7883;SDS011;3987;51.458;7.238;2022-10-16T07:08:38;2.20;;;0.97;;
7883;SDS011;3987;51.458;7.238;2022-10-16T07:11:05;2.97;;;1.30;;
7883;SDS011;3987;51.458;7.238;2022-10-16T07:13:35;2.10;;;1.30;;
7883;SDS011;3987;51.458;7.238;2022-10-16T07:16:11;2.00;;;1.17;;
7883;SDS011;3987;51.458;7.238;2022-10-16T07:18:38;1.10;;;1.10;;
7883;SDS011;3987;51.458;7.238;2022-10-16T07:21:09;1.33;;;1.20;;
7883;SDS011;3987;51.458;7.238;2022-10-16T07:23:36;1.50;;;1.40;;
7883;SDS011;3987;51.458;7.238;2022-10-16T07:26:02;1.33;;;1.27;;
7883;SDS011;3987;51.458;7.238;2022-10-16T07:28:28;1.00;;;1.00;;
7883;SDS011;3987;51.458;7.238;2022-10-16T07:30:53;2.17;;;1.50;;
7883;SDS011;3987;51.458;7.238;2022-10-16T07:33:19;1.33;;;1.27;;
7883;SDS011;3987;51.458;7.238;2022-10-16T07:35:51;1.47;;;1.17;;
7883;SDS011;3987;51.458;7.238;2022-10-16T07:38:17;1.30;;;1.20;;
7883;SDS011;3987;51.458;7.238;2022-10-16T07:40:43;1.20;;;1.20;;
7883;SDS011;3987;51.458;7.238;2022-10-16T07:43:09;2.67;;;1.30;;
7883;SDS011;3987;51.458;7.238;2022-10-16T07:45:34;1.37;;;1.37;;
7883;SDS011;3987;51.458;7.238;2022-10-16T07:47:59;1.60;;;1.30;;
7883;SDS011;3987;51.458;7.238;2022-10-16T07:50:25;1.27;;;1.17;;
7883;SDS011;3987;51.458;7.238;2022-10-16T07:52:51;1.90;;;1.10;;
7883;SDS011;3987;51.458;7.238;2022-10-16T07:55:17;1.23;;;0.90;;
7883;SDS011;3987;51.458;7.238;2022-10-16T07:57:42;1.00;;;1.00;;
7883;SDS011;3987;51.458;7.238;2022-10-16T08:00:08;0.90;;;0.90;;
7883;SDS011;3987;51.458;7.238;2022-10-16T08:02:38;1.07;;;1.07;;
7883;SDS011;3987;51.458;7.238;2022-10-16T08:05:07;1.13;;;1.13;;
7883;SDS011;3987;51.458;7.238;2022-10-16T08:07:32;1.33;;;1.03;;
7883;SDS011;3987;51.458;7.238;2022-10-16T08:09:58;1.63;;;0.73;;
7883;SDS011;3987;51.458;7.238;2022-10-16T08:12:24;1.33;;;0.73;;
7883;SDS011;3987;51.458;7.238;2022-10-16T08:14:50;1.37;;;0.80;;
7883;SDS011;3987;51.458;7.238;2022-10-16T08:17:15;1.43;;;1.30;;
7883;SDS011;3987;51.458;7.238;2022-10-16T08:19:44;1.30;;;0.90;;
7883;SDS011;3987;51.458;7.238;2022-10-16T08:22:13;1.97;;;0.60;;
7883;SDS011;3987;51.458;7.238;2022-10-16T08:24:39;4.27;;;1.30;;
7883;SDS011;3987;51.458;7.238;2022-10-16T08:27:06;0.77;;;0.77;;
7883;SDS011;3987;51.458;7.238;2022-10-16T08:29:31;0.70;;;0.70;;
7883;SDS011;3987;51.458;7.238;2022-10-16T08:31:57;0.70;;;0.70;;
7883;SDS011;3987;51.458;7.238;2022-10-16T08:34:22;1.47;;;0.73;;
7883;SDS011;3987;51.458;7.238;2022-10-16T08:36:47;0.70;;;0.70;;
7883;SDS011;3987;51.458;7.238;2022-10-16T08:39:13;0.53;;;0.53;;
7883;SDS011;3987;51.458;7.238;2022-10-16T08:47:22;0.80;;;0.40;;
7883;SDS011;3987;51.458;7.238;2022-10-16T08:50:08;0.73;;;0.73;;
7883;SDS011;3987;51.458;7.238;2022-10-16T08:52:35;0.50;;;0.50;;
7883;SDS011;3987;51.458;7.238;2022-10-16T08:55:04;0.40;;;0.40;;
7883;SDS011;3987;51.458;7.238;2022-10-16T08:57:30;2.40;;;0.80;;
7883;SDS011;3987;51.458;7.238;2022-10-16T09:00:05;1.87;;;0.50;;
7883;SDS011;3987;51.458;7.238;2022-10-16T09:02:37;1.80;;;0.60;;
7883;SDS011;3987;51.458;7.238;2022-10-16T09:07:54;1.43;;;0.87;;
7883;SDS011;3987;51.458;7.238;2022-10-16T09:10:37;1.17;;;0.40;;
7883;SDS011;3987;51.458;7.238;2022-10-16T09:13:18;0.47;;;0.47;;
7883;SDS011;3987;51.458;7.238;2022-10-16T09:15:58;1.37;;;0.80;;
7883;SDS011;3987;51.458;7.238;2022-10-16T09:18:40;0.40;;;0.40;;
7883;SDS011;3987;51.458;7.238;2022-10-16T09:23:43;0.60;;;0.40;;
7883;SDS011;3987;51.458;7.238;2022-10-16T09:26:09;1.83;;;0.53;;
7883;SDS011;3987;51.458;7.238;2022-10-16T09:28:37;1.23;;;0.40;;
7883;SDS011;3987;51.458;7.238;2022-10-16T09:31:02;0.53;;;0.53;;
7883;SDS011;3987;51.458;7.238;2022-10-16T09:33:37;3.03;;;0.60;;
7883;SDS011;3987;51.458;7.238;2022-10-16T09:36:04;1.90;;;0.40;;
7883;SDS011;3987;51.458;7.238;2022-10-16T09:38:35;1.93;;;0.60;;
7883;SDS011;3987;51.458;7.238;2022-10-16T09:41:22;0.50;;;0.50;;
7883;SDS011;3987;51.458;7.238;2022-10-16T09:44:00;0.50;;;0.50;;
7883;SDS011;3987;51.458;7.238;2022-10-16T09:46:28;1.70;;;0.60;;
7883;SDS011;3987;51.458;7.238;2022-10-16T09:51:49;1.87;;;0.40;;
7883;SDS011;3987;51.458;7.238;2022-10-16T09:54:16;0.63;;;0.57;;
7883;SDS011;3987;51.458;7.238;2022-10-16T09:56:43;2.00;;;0.43;;
7883;SDS011;3987;51.458;7.238;2022-10-16T10:01:41;0.50;;;0.50;;
7883;SDS011;3987;51.458;7.238;2022-10-16T10:04:08;1.63;;;0.40;;
7883;SDS011;3987;51.458;7.238;2022-10-16T10:06:48;0.60;;;0.60;;
7883;SDS011;3987;51.458;7.238;2022-10-16T10:11:55;0.40;;;0.40;;
7883;SDS011;3987;51.458;7.238;2022-10-16T10:14:29;4.43;;;0.50;;
7883;SDS011;3987;51.458;7.238;2022-10-16T10:19:37;2.20;;;0.33;;
7883;SDS011;3987;51.458;7.238;2022-10-16T10:25:41;1.30;;;0.40;;
7883;SDS011;3987;51.458;7.238;2022-10-16T10:28:15;0.53;;;0.30;;
7883;SDS011;3987;51.458;7.238;2022-10-16T10:33:37;1.57;;;0.30;;
7883;SDS011;3987;51.458;7.238;2022-10-16T10:38:59;0.30;;;0.30;;
7883;SDS011;3987;51.458;7.238;2022-10-16T10:41:53;1.90;;;0.57;;
7883;SDS011;3987;51.458;7.238;2022-10-16T10:47:37;0.30;;;0.30;;
7883;SDS011;3987;51.458;7.238;2022-10-16T10:50:19;1.33;;;0.30;;
7883;SDS011;3987;51.458;7.238;2022-10-16T10:53:06;2.30;;;0.40;;
7883;SDS011;3987;51.458;7.238;2022-10-16T10:55:40;1.37;;;0.30;;
7883;SDS011;3987;51.458;7.238;2022-10-16T11:00:53;0.40;;;0.30;;
7883;SDS011;3987;51.458;7.238;2022-10-16T11:03:45;0.53;;;0.20;;
7883;SDS011;3987;51.458;7.238;2022-10-16T11:06:26;0.20;;;0.20;;
7883;SDS011;3987;51.458;7.238;2022-10-16T11:09:15;0.70;;;0.37;;
7883;SDS011;3987;51.458;7.238;2022-10-16T11:11:44;0.60;;;0.20;;
7883;SDS011;3987;51.458;7.238;2022-10-16T11:14:22;0.20;;;0.20;;
7883;SDS011;3987;51.458;7.238;2022-10-16T11:16:52;0.40;;;0.40;;
7883;SDS011;3987;51.458;7.238;2022-10-16T11:19:33;0.20;;;0.20;;
7883;SDS011;3987;51.458;7.238;2022-10-16T11:22:11;1.43;;;0.20;;
7883;SDS011;3987;51.458;7.238;2022-10-16T11:24:54;1.47;;;0.30;;
7883;SDS011;3987;51.458;7.238;2022-10-16T11:27:33;0.67;;;0.30;;
7883;SDS011;3987;51.458;7.238;2022-10-16T11:30:13;0.30;;;0.20;;
7883;SDS011;3987;51.458;7.238;2022-10-16T11:35:38;0.30;;;0.20;;
7883;SDS011;3987;51.458;7.238;2022-10-16T11:40:53;0.57;;;0.27;;
7883;SDS011;3987;51.458;7.238;2022-10-16T11:43:22;2.30;;;0.20;;
7883;SDS011;3987;51.458;7.238;2022-10-16T11:45:51;0.87;;;0.30;;
7883;SDS011;3987;51.458;7.238;2022-10-16T11:48:30;2.00;;;0.57;;
7883;SDS011;3987;51.458;7.238;2022-10-16T11:51:07;1.90;;;0.20;;
7883;SDS011;3987;51.458;7.238;2022-10-16T11:56:20;0.57;;;0.40;;
7883;SDS011;3987;51.458;7.238;2022-10-16T11:58:54;0.33;;;0.20;;
7883;SDS011;3987;51.458;7.238;2022-10-16T12:07:02;0.50;;;0.20;;
7883;SDS011;3987;51.458;7.238;2022-10-16T12:09:33;2.17;;;0.20;;
7883;SDS011;3987;51.458;7.238;2022-10-16T12:12:00;0.80;;;0.23;;
7883;SDS011;3987;51.458;7.238;2022-10-16T12:16:55;0.40;;;0.20;;
7883;SDS011;3987;51.458;7.238;2022-10-16T12:19:23;0.30;;;0.30;;
7883;SDS011;3987;51.458;7.238;2022-10-16T12:21:50;0.30;;;0.30;;
7883;SDS011;3987;51.458;7.238;2022-10-16T12:27:02;0.70;;;0.20;;
7883;SDS011;3987;51.458;7.238;2022-10-16T12:29:42;0.20;;;0.20;;
7883;SDS011;3987;51.458;7.238;2022-10-16T12:35:18;0.50;;;0.37;;
7883;SDS011;3987;51.458;7.238;2022-10-16T12:37:46;0.47;;;0.30;;
7883;SDS011;3987;51.458;7.238;2022-10-16T12:40:28;1.33;;;0.30;;
7883;SDS011;3987;51.458;7.238;2022-10-16T12:42:55;0.87;;;0.30;;
7883;SDS011;3987;51.458;7.238;2022-10-16T12:45:31;0.60;;;0.30;;
7883;SDS011;3987;51.458;7.238;2022-10-16T12:47:58;1.03;;;0.30;;
7883;SDS011;3987;51.458;7.238;2022-10-16T12:50:32;0.30;;;0.20;;
7883;SDS011;3987;51.458;7.238;2022-10-16T12:53:00;1.27;;;0.37;;
7883;SDS011;3987;51.458;7.238;2022-10-16T12:55:26;0.90;;;0.20;;
7883;SDS011;3987;51.458;7.238;2022-10-16T13:00:56;0.50;;;0.20;;
7883;SDS011;3987;51.458;7.238;2022-10-16T13:06:15;0.30;;;0.20;;
7883;SDS011;3987;51.458;7.238;2022-10-16T13:08:55;1.03;;;0.30;;
7883;SDS011;3987;51.458;7.238;2022-10-16T13:11:39;0.37;;;0.30;;
7883;SDS011;3987;51.458;7.238;2022-10-16T13:22:37;1.33;;;0.30;;
7883;SDS011;3987;51.458;7.238;2022-10-16T13:28:14;0.30;;;0.30;;
7883;SDS011;3987;51.458;7.238;2022-10-16T13:30:42;0.57;;;0.20;;
7883;SDS011;3987;51.458;7.238;2022-10-16T13:33:19;0.77;;;0.20;;
7883;SDS011;3987;51.458;7.238;2022-10-16T13:35:50;0.50;;;0.23;;
7883;SDS011;3987;51.458;7.238;2022-10-16T13:38:17;0.40;;;0.40;;
7883;SDS011;3987;51.458;7.238;2022-10-16T13:40:55;0.30;;;0.30;;
7883;SDS011;3987;51.458;7.238;2022-10-16T13:45:59;1.30;;;0.20;;
7883;SDS011;3987;51.458;7.238;2022-10-16T13:48:29;0.77;;;0.40;;
7883;SDS011;3987;51.458;7.238;2022-10-16T13:51:03;0.73;;;0.40;;
7883;SDS011;3987;51.458;7.238;2022-10-16T13:53:37;0.23;;;0.23;;
7883;SDS011;3987;51.458;7.238;2022-10-16T13:56:04;0.30;;;0.30;;
7883;SDS011;3987;51.458;7.238;2022-10-16T13:58:31;0.53;;;0.20;;
7883;SDS011;3987;51.458;7.238;2022-10-16T14:01:01;1.70;;;0.33;;
7883;SDS011;3987;51.458;7.238;2022-10-16T14:03:30;0.20;;;0.20;;
7883;SDS011;3987;51.458;7.238;2022-10-16T14:05:58;0.10;;;0.10;;
7883;SDS011;3987;51.458;7.238;2022-10-16T14:08:25;0.30;;;0.10;;
7883;SDS011;3987;51.458;7.238;2022-10-16T14:10:53;0.67;;;0.30;;
7883;SDS011;3987;51.458;7.238;2022-10-16T14:13:22;0.67;;;0.30;;
7883;SDS011;3987;51.458;7.238;2022-10-16T14:15:57;1.90;;;0.20;;
7883;SDS011;3987;51.458;7.238;2022-10-16T14:18:27;0.20;;;0.20;;
7883;SDS011;3987;51.458;7.238;2022-10-16T14:20:52;0.40;;;0.40;;
7883;SDS011;3987;51.458;7.238;2022-10-16T14:23:19;0.30;;;0.30;;
7883;SDS011;3987;51.458;7.238;2022-10-16T14:25:46;0.40;;;0.30;;
7883;SDS011;3987;51.458;7.238;2022-10-16T14:28:18;1.00;;;0.40;;
7883;SDS011;3987;51.458;7.238;2022-10-16T14:33:49;0.27;;;0.27;;
7883;SDS011;3987;51.458;7.238;2022-10-16T14:36:14;1.00;;;0.30;;
7883;SDS011;3987;51.458;7.238;2022-10-16T14:38:42;0.90;;;0.30;;
7883;SDS011;3987;51.458;7.238;2022-10-16T14:41:12;0.33;;;0.27;;
7883;SDS011;3987;51.458;7.238;2022-10-16T14:43:39;1.37;;;0.40;;
7883;SDS011;3987;51.458;7.238;2022-10-16T14:46:06;2.83;;;0.50;;
7883;SDS011;3987;51.458;7.238;2022-10-16T14:48:40;0.80;;;0.50;;
7883;SDS011;3987;51.458;7.238;2022-10-16T14:51:08;0.30;;;0.23;;
7883;SDS011;3987;51.458;7.238;2022-10-16T14:53:38;2.47;;;0.27;;
7883;SDS011;3987;51.458;7.238;2022-10-16T14:56:07;1.17;;;0.20;;
7883;SDS011;3987;51.458;7.238;2022-10-16T14:58:34;0.70;;;0.40;;
7883;SDS011;3987;51.458;7.238;2022-10-16T15:01:00;0.23;;;0.23;;
7883;SDS011;3987;51.458;7.238;2022-10-16T15:03:25;2.30;;;0.50;;
7883;SDS011;3987;51.458;7.238;2022-10-16T15:05:50;2.77;;;0.40;;
7883;SDS011;3987;51.458;7.238;2022-10-16T15:08:16;0.70;;;0.70;;
7883;SDS011;3987;51.458;7.238;2022-10-16T15:10:42;1.03;;;0.77;;
7883;SDS011;3987;51.458;7.238;2022-10-16T15:13:12;0.77;;;0.77;;
7883;SDS011;3987;51.458;7.238;2022-10-16T15:15:45;1.60;;;0.70;;
7883;SDS011;3987;51.458;7.238;2022-10-16T15:18:11;0.53;;;0.47;;
7883;SDS011;3987;51.458;7.238;2022-10-16T15:20:39;2.53;;;0.40;;
7883;SDS011;3987;51.458;7.238;2022-10-16T15:23:06;1.80;;;0.60;;
7883;SDS011;3987;51.458;7.238;2022-10-16T15:28:06;0.50;;;0.50;;
7883;SDS011;3987;51.458;7.238;2022-10-16T15:30:33;1.23;;;0.40;;
7883;SDS011;3987;51.458;7.238;2022-10-16T15:32:58;1.03;;;0.43;;
7883;SDS011;3987;51.458;7.238;2022-10-16T15:35:24;2.43;;;0.80;;
7883;SDS011;3987;51.458;7.238;2022-10-16T15:37:49;1.00;;;1.00;;
7883;SDS011;3987;51.458;7.238;2022-10-16T15:40:15;1.17;;;0.90;;
7883;SDS011;3987;51.458;7.238;2022-10-16T15:42:42;0.73;;;0.73;;
7883;SDS011;3987;51.458;7.238;2022-10-16T15:45:08;1.27;;;1.20;;
7883;SDS011;3987;51.458;7.238;2022-10-16T15:47:35;0.80;;;0.80;;
7883;SDS011;3987;51.458;7.238;2022-10-16T15:50:00;1.60;;;1.50;;
7883;SDS011;3987;51.458;7.238;2022-10-16T15:52:25;1.83;;;1.73;;
7883;SDS011;3987;51.458;7.238;2022-10-16T15:54:51;1.37;;;1.33;;
7883;SDS011;3987;51.458;7.238;2022-10-16T15:57:16;1.60;;;1.50;;
7883;SDS011;3987;51.458;7.238;2022-10-16T15:59:42;0.93;;;0.93;;
7883;SDS011;3987;51.458;7.238;2022-10-16T16:02:08;1.03;;;1.03;;
7883;SDS011;3987;51.458;7.238;2022-10-16T16:04:34;1.23;;;0.93;;
7883;SDS011;3987;51.458;7.238;2022-10-16T16:06:59;1.33;;;0.80;;
7883;SDS011;3987;51.458;7.238;2022-10-16T16:09:26;1.03;;;0.90;;
7883;SDS011;3987;51.458;7.238;2022-10-16T16:11:51;0.70;;;0.70;;
7883;SDS011;3987;51.458;7.238;2022-10-16T16:14:17;3.87;;;0.90;;
7883;SDS011;3987;51.458;7.238;2022-10-16T16:16:42;1.93;;;1.20;;
7883;SDS011;3987;51.458;7.238;2022-10-16T16:19:08;0.80;;;0.80;;
7883;SDS011;3987;51.458;7.238;2022-10-16T16:21:34;0.97;;;0.80;;
7883;SDS011;3987;51.458;7.238;2022-10-16T16:24:00;0.90;;;0.90;;
7883;SDS011;3987;51.458;7.238;2022-10-16T16:26:29;2.30;;;0.97;;
7883;SDS011;3987;51.458;7.238;2022-10-16T16:28:59;1.37;;;1.00;;
7883;SDS011;3987;51.458;7.238;2022-10-16T16:31:25;0.93;;;0.90;;
7883;SDS011;3987;51.458;7.238;2022-10-16T16:33:51;1.40;;;1.20;;
7883;SDS011;3987;51.458;7.238;2022-10-16T16:36:17;2.50;;;1.60;;
7883;SDS011;3987;51.458;7.238;2022-10-16T16:38:43;2.27;;;1.93;;
7883;SDS011;3987;51.458;7.238;2022-10-16T16:41:13;2.30;;;2.20;;
7883;SDS011;3987;51.458;7.238;2022-10-16T16:43:42;2.97;;;2.87;;
7883;SDS011;3987;51.458;7.238;2022-10-16T16:46:07;3.47;;;3.37;;
7883;SDS011;3987;51.458;7.238;2022-10-16T16:48:33;1.97;;;1.87;;
7883;SDS011;3987;51.458;7.238;2022-10-16T16:51:17;2.57;;;2.30;;
7883;SDS011;3987;51.458;7.238;2022-10-16T16:53:53;1.80;;;1.70;;
7883;SDS011;3987;51.458;7.238;2022-10-16T16:56:19;1.30;;;1.30;;
7883;SDS011;3987;51.458;7.238;2022-10-16T16:58:46;1.40;;;1.40;;
7883;SDS011;3987;51.458;7.238;2022-10-16T17:01:15;1.37;;;1.30;;
7883;SDS011;3987;51.458;7.238;2022-10-16T17:03:42;1.70;;;1.60;;